sensor_id;sensor_type;location;lat;lon;timestamp;temperature;humidity
24664;DHT22;12791;50.992;13.788;2023-05-07T00:01:32;11.30;99.90
24664;DHT22;12791;50.992;13.788;2023-05-07T00:04:00;11.30;99.90
24664;DHT22;12791;50.992;13.788;2023-05-07T00:06:27;11.30;99.90
24664;DHT22;12791;50.992;13.788;2023-05-07T00:08:54;11.30;99.90
24664;DHT22;12791;50.992;13.788;2023-05-07T00:11:21;11.30;99.90
24664;DHT22;12791;50.992;13.788;2023-05-07T00:13:48;11.20;99.90
24664;DHT22;12791;50.992;13.788;2023-05-07T00:16:14;11.20;99.90
24664;DHT22;12791;50.992;13.788;2023-05-07T00:18:41;11.20;99.90
24664;DHT22;12791;50.992;13.788;2023-05-07T00:21:09;11.20;99.90
24664;DHT22;12791;50.992;13.788;2023-05-07T00:23:36;11.20;99.90
24664;DHT22;12791;50.992;13.788;2023-05-07T00:26:02;10.80;99.90
24664;DHT22;12791;50.992;13.788;2023-05-07T00:28:29;11.20;99.90
24664;DHT22;12791;50.992;13.788;2023-05-07T00:30:56;11.20;99.90
24664;DHT22;12791;50.992;13.788;2023-05-07T00:33:22;11.20;99.90
24664;DHT22;12791;50.992;13.788;2023-05-07T00:35:49;11.10;99.90
24664;DHT22;12791;50.992;13.788;2023-05-07T00:38:17;11.10;99.90
24664;DHT22;12791;50.992;13.788;2023-05-07T00:40:43;11.10;99.90
24664;DHT22;12791;50.992;13.788;2023-05-07T00:43:10;10.80;99.90
24664;DHT22;12791;50.992;13.788;2023-05-07T00:45:38;11.00;99.90
24664;DHT22;12791;50.992;13.788;2023-05-07T00:48:05;11.00;99.90
24664;DHT22;12791;50.992;13.788;2023-05-07T00:50:32;11.00;99.90
24664;DHT22;12791;50.992;13.788;2023-05-07T00:53:00;10.90;99.90
24664;DHT22;12791;50.992;13.788;2023-05-07T00:55:28;10.90;99.90
24664;DHT22;12791;50.992;13.788;2023-05-07T00:57:55;10.90;99.90
24664;DHT22;12791;50.992;13.788;2023-05-07T01:00:22;10.90;99.90
24664;DHT22;12791;50.992;13.788;2023-05-07T01:02:50;10.90;99.90
24664;DHT22;12791;50.992;13.788;2023-05-07T01:05:18;10.90;99.90
24664;DHT22;12791;50.992;13.788;2023-05-07T01:07:45;10.90;99.90
24664;DHT22;12791;50.992;13.788;2023-05-07T01:10:13;10.90;99.90
24664;DHT22;12791;50.992;13.788;2023-05-07T01:12:42;10.90;99.90
24664;DHT22;12791;50.992;13.788;2023-05-07T01:15:09;10.90;99.90
24664;DHT22;12791;50.992;13.788;2023-05-07T01:17:37;10.90;99.90
24664;DHT22;12791;50.992;13.788;2023-05-07T01:20:06;10.90;99.90
24664;DHT22;12791;50.992;13.788;2023-05-07T01:22:35;10.90;99.90
24664;DHT22;12791;50.992;13.788;2023-05-07T01:25:03;10.80;99.90
24664;DHT22;12791;50.992;13.788;2023-05-07T01:27:30;10.80;99.90
24664;DHT22;12791;50.992;13.788;2023-05-07T01:29:58;10.70;99.90
24664;DHT22;12791;50.992;13.788;2023-05-07T01:32:30;10.70;99.90
24664;DHT22;12791;50.992;13.788;2023-05-07T01:35:00;10.70;99.90
24664;DHT22;12791;50.992;13.788;2023-05-07T01:37:28;10.80;99.90
24664;DHT22;12791;50.992;13.788;2023-05-07T01:39:56;10.80;99.90
24664;DHT22;12791;50.992;13.788;2023-05-07T01:42:23;10.80;99.90
24664;DHT22;12791;50.992;13.788;2023-05-07T01:44:51;10.80;99.90
24664;DHT22;12791;50.992;13.788;2023-05-07T01:47:17;10.90;99.90
24664;DHT22;12791;50.992;13.788;2023-05-07T01:49:44;10.90;99.90
24664;DHT22;12791;50.992;13.788;2023-05-07T01:52:11;10.90;99.90
24664;DHT22;12791;50.992;13.788;2023-05-07T01:54:38;10.80;99.90
24664;DHT22;12791;50.992;13.788;2023-05-07T01:57:06;10.80;99.90
24664;DHT22;12791;50.992;13.788;2023-05-07T01:59:32;10.80;99.90
24664;DHT22;12791;50.992;13.788;2023-05-07T02:01:59;10.80;99.90
24664;DHT22;12791;50.992;13.788;2023-05-07T02:04:26;10.80;99.90
24664;DHT22;12791;50.992;13.788;2023-05-07T02:06:52;10.80;99.90
24664;DHT22;12791;50.992;13.788;2023-05-07T02:09:19;10.80;99.90
24664;DHT22;12791;50.992;13.788;2023-05-07T02:11:45;10.80;99.90
24664;DHT22;12791;50.992;13.788;2023-05-07T02:14:13;10.80;99.90
24664;DHT22;12791;50.992;13.788;2023-05-07T02:16:40;10.80;99.90
24664;DHT22;12791;50.992;13.788;2023-05-07T02:19:07;10.80;99.90
24664;DHT22;12791;50.992;13.788;2023-05-07T02:21:34;10.80;99.90
24664;DHT22;12791;50.992;13.788;2023-05-07T02:24:00;10.80;99.90
24664;DHT22;12791;50.992;13.788;2023-05-07T02:26:27;10.80;99.90
24664;DHT22;12791;50.992;13.788;2023-05-07T02:28:53;10.70;99.90
24664;DHT22;12791;50.992;13.788;2023-05-07T02:31:21;10.70;99.90
24664;DHT22;12791;50.992;13.788;2023-05-07T02:33:48;10.70;99.90
24664;DHT22;12791;50.992;13.788;2023-05-07T02:36:15;10.80;99.90
24664;DHT22;12791;50.992;13.788;2023-05-07T02:38:41;10.80;99.90
24664;DHT22;12791;50.992;13.788;2023-05-07T02:41:08;10.80;99.90
24664;DHT22;12791;50.992;13.788;2023-05-07T02:43:35;10.80;99.90
24664;DHT22;12791;50.992;13.788;2023-05-07T02:46:02;10.80;99.90
24664;DHT22;12791;50.992;13.788;2023-05-07T02:48:30;10.80;99.90
24664;DHT22;12791;50.992;13.788;2023-05-07T02:50:57;10.80;99.90
24664;DHT22;12791;50.992;13.788;2023-05-07T02:53:23;10.80;99.90
24664;DHT22;12791;50.992;13.788;2023-05-07T02:55:51;10.80;99.90
24664;DHT22;12791;50.992;13.788;2023-05-07T02:58:18;10.80;99.90
24664;DHT22;12791;50.992;13.788;2023-05-07T03:00:44;10.70;99.90
24664;DHT22;12791;50.992;13.788;2023-05-07T03:03:11;10.70;99.90
24664;DHT22;12791;50.992;13.788;2023-05-07T03:05:39;10.70;99.90
24664;DHT22;12791;50.992;13.788;2023-05-07T03:08:08;10.70;99.90
24664;DHT22;12791;50.992;13.788;2023-05-07T03:10:35;10.70;99.90
24664;DHT22;12791;50.992;13.788;2023-05-07T03:13:02;10.70;99.90
24664;DHT22;12791;50.992;13.788;2023-05-07T03:15:29;10.70;99.90
24664;DHT22;12791;50.992;13.788;2023-05-07T03:17:56;10.60;99.90
24664;DHT22;12791;50.992;13.788;2023-05-07T03:20:22;10.70;99.90
24664;DHT22;12791;50.992;13.788;2023-05-07T03:22:50;10.60;99.90
24664;DHT22;12791;50.992;13.788;2023-05-07T03:25:17;10.70;99.90
24664;DHT22;12791;50.992;13.788;2023-05-07T03:27:44;10.60;99.90
24664;DHT22;12791;50.992;13.788;2023-05-07T03:30:11;10.20;99.90
24664;DHT22;12791;50.992;13.788;2023-05-07T03:32:38;10.60;99.90
24664;DHT22;12791;50.992;13.788;2023-05-07T03:35:05;10.60;99.90
24664;DHT22;12791;50.992;13.788;2023-05-07T03:37:32;10.60;99.90
24664;DHT22;12791;50.992;13.788;2023-05-07T03:40:00;10.60;99.90
24664;DHT22;12791;50.992;13.788;2023-05-07T03:42:28;10.60;99.90
24664;DHT22;12791;50.992;13.788;2023-05-07T03:44:55;10.60;99.90
24664;DHT22;12791;50.992;13.788;2023-05-07T03:47:22;10.60;99.90
24664;DHT22;12791;50.992;13.788;2023-05-07T03:49:48;10.60;99.90
24664;DHT22;12791;50.992;13.788;2023-05-07T03:52:15;10.60;99.90
24664;DHT22;12791;50.992;13.788;2023-05-07T03:54:47;10.70;99.90
24664;DHT22;12791;50.992;13.788;2023-05-07T03:57:15;10.60;99.90
24664;DHT22;12791;50.992;13.788;2023-05-07T03:59:42;10.50;99.90
24664;DHT22;12791;50.992;13.788;2023-05-07T04:02:09;10.40;99.90
24664;DHT22;12791;50.992;13.788;2023-05-07T04:04:35;10.40;99.90
24664;DHT22;12791;50.992;13.788;2023-05-07T04:07:02;10.40;99.90
24664;DHT22;12791;50.992;13.788;2023-05-07T04:09:29;10.30;99.90
24664;DHT22;12791;50.992;13.788;2023-05-07T04:11:56;10.30;99.90
24664;DHT22;12791;50.992;13.788;2023-05-07T04:14:24;10.30;99.90
24664;DHT22;12791;50.992;13.788;2023-05-07T04:16:51;10.30;99.90
24664;DHT22;12791;50.992;13.788;2023-05-07T04:19:17;10.30;99.90
24664;DHT22;12791;50.992;13.788;2023-05-07T04:21:44;10.30;99.90
24664;DHT22;12791;50.992;13.788;2023-05-07T04:24:10;10.40;99.90
24664;DHT22;12791;50.992;13.788;2023-05-07T04:26:37;10.40;99.90
24664;DHT22;12791;50.992;13.788;2023-05-07T04:29:04;10.40;99.90
24664;DHT22;12791;50.992;13.788;2023-05-07T04:31:32;10.50;99.90
24664;DHT22;12791;50.992;13.788;2023-05-07T04:33:59;10.50;99.90
24664;DHT22;12791;50.992;13.788;2023-05-07T04:36:26;10.40;99.90
24664;DHT22;12791;50.992;13.788;2023-05-07T04:38:54;10.40;99.90
24664;DHT22;12791;50.992;13.788;2023-05-07T04:41:21;10.40;99.90
24664;DHT22;12791;50.992;13.788;2023-05-07T04:43:47;10.40;99.90
24664;DHT22;12791;50.992;13.788;2023-05-07T04:46:14;10.60;99.90
24664;DHT22;12791;50.992;13.788;2023-05-07T04:48:42;10.30;99.90
24664;DHT22;12791;50.992;13.788;2023-05-07T04:51:09;10.30;99.90
24664;DHT22;12791;50.992;13.788;2023-05-07T04:53:35;10.30;99.90
24664;DHT22;12791;50.992;13.788;2023-05-07T04:56:02;10.30;99.90
24664;DHT22;12791;50.992;13.788;2023-05-07T04:58:29;10.30;99.90
24664;DHT22;12791;50.992;13.788;2023-05-07T05:00:56;10.30;99.90
24664;DHT22;12791;50.992;13.788;2023-05-07T05:03:23;10.30;99.90
24664;DHT22;12791;50.992;13.788;2023-05-07T05:05:52;10.30;99.90
24664;DHT22;12791;50.992;13.788;2023-05-07T05:08:19;10.40;99.90
24664;DHT22;12791;50.992;13.788;2023-05-07T05:10:45;10.40;99.90
24664;DHT22;12791;50.992;13.788;2023-05-07T05:13:14;10.50;99.90
24664;DHT22;12791;50.992;13.788;2023-05-07T05:15:40;10.40;99.90
24664;DHT22;12791;50.992;13.788;2023-05-07T05:18:07;10.40;99.90
24664;DHT22;12791;50.992;13.788;2023-05-07T05:20:33;10.40;99.90
24664;DHT22;12791;50.992;13.788;2023-05-07T05:23:01;10.50;99.90
24664;DHT22;12791;50.992;13.788;2023-05-07T05:25:28;10.60;99.90
24664;DHT22;12791;50.992;13.788;2023-05-07T05:27:55;10.50;99.90
24664;DHT22;12791;50.992;13.788;2023-05-07T05:30:22;10.60;99.90
24664;DHT22;12791;50.992;13.788;2023-05-07T05:32:48;10.60;99.90
24664;DHT22;12791;50.992;13.788;2023-05-07T05:35:15;10.50;99.90
24664;DHT22;12791;50.992;13.788;2023-05-07T05:37:42;10.50;99.90
24664;DHT22;12791;50.992;13.788;2023-05-07T05:40:10;10.50;99.90
24664;DHT22;12791;50.992;13.788;2023-05-07T05:42:37;10.50;99.90
24664;DHT22;12791;50.992;13.788;2023-05-07T05:45:05;10.40;99.90
24664;DHT22;12791;50.992;13.788;2023-05-07T05:47:32;10.40;99.90
24664;DHT22;12791;50.992;13.788;2023-05-07T05:49:58;10.30;99.90
24664;DHT22;12791;50.992;13.788;2023-05-07T05:52:25;10.30;99.90
24664;DHT22;12791;50.992;13.788;2023-05-07T05:54:53;10.20;99.90
24664;DHT22;12791;50.992;13.788;2023-05-07T05:57:21;10.10;99.90
24664;DHT22;12791;50.992;13.788;2023-05-07T05:59:47;10.00;99.90
24664;DHT22;12791;50.992;13.788;2023-05-07T06:02:14;10.00;99.90
24664;DHT22;12791;50.992;13.788;2023-05-07T06:04:40;10.00;99.90
24664;DHT22;12791;50.992;13.788;2023-05-07T06:07:08;10.00;99.90
24664;DHT22;12791;50.992;13.788;2023-05-07T06:09:34;10.00;99.90
24664;DHT22;12791;50.992;13.788;2023-05-07T06:12:01;9.90;99.90
24664;DHT22;12791;50.992;13.788;2023-05-07T06:14:29;9.90;99.90
24664;DHT22;12791;50.992;13.788;2023-05-07T06:16:56;9.90;99.90
24664;DHT22;12791;50.992;13.788;2023-05-07T06:19:23;9.90;99.90
24664;DHT22;12791;50.992;13.788;2023-05-07T06:21:49;10.00;99.90
24664;DHT22;12791;50.992;13.788;2023-05-07T06:24:16;10.00;99.90
24664;DHT22;12791;50.992;13.788;2023-05-07T06:26:43;10.00;99.90
24664;DHT22;12791;50.992;13.788;2023-05-07T06:29:09;10.00;99.90
24664;DHT22;12791;50.992;13.788;2023-05-07T06:31:37;10.10;99.90
24664;DHT22;12791;50.992;13.788;2023-05-07T06:34:04;10.10;99.90
24664;DHT22;12791;50.992;13.788;2023-05-07T06:36:30;10.20;99.90
24664;DHT22;12791;50.992;13.788;2023-05-07T06:38:57;10.20;99.90
24664;DHT22;12791;50.992;13.788;2023-05-07T06:41:24;10.20;99.90
24664;DHT22;12791;50.992;13.788;2023-05-07T06:43:51;10.20;99.90
24664;DHT22;12791;50.992;13.788;2023-05-07T06:46:17;10.20;99.90
24664;DHT22;12791;50.992;13.788;2023-05-07T06:48:45;10.20;99.90
24664;DHT22;12791;50.992;13.788;2023-05-07T06:51:12;10.20;99.90
24664;DHT22;12791;50.992;13.788;2023-05-07T06:53:38;10.50;99.90
24664;DHT22;12791;50.992;13.788;2023-05-07T06:56:06;10.30;99.90
24664;DHT22;12791;50.992;13.788;2023-05-07T06:58:32;10.30;99.90
24664;DHT22;12791;50.992;13.788;2023-05-07T07:00:59;10.40;99.90
24664;DHT22;12791;50.992;13.788;2023-05-07T07:03:26;10.40;99.90
24664;DHT22;12791;50.992;13.788;2023-05-07T07:05:54;10.40;99.90
24664;DHT22;12791;50.992;13.788;2023-05-07T07:08:21;10.50;99.90
24664;DHT22;12791;50.992;13.788;2023-05-07T07:10:48;10.40;99.90
24664;DHT22;12791;50.992;13.788;2023-05-07T07:13:15;10.50;99.90
24664;DHT22;12791;50.992;13.788;2023-05-07T07:15:42;10.50;99.90
24664;DHT22;12791;50.992;13.788;2023-05-07T07:18:08;10.40;99.90
24664;DHT22;12791;50.992;13.788;2023-05-07T07:20:35;10.40;99.90
24664;DHT22;12791;50.992;13.788;2023-05-07T07:23:03;10.40;99.90
24664;DHT22;12791;50.992;13.788;2023-05-07T07:25:30;10.40;99.90
24664;DHT22;12791;50.992;13.788;2023-05-07T07:27:56;10.60;99.90
24664;DHT22;12791;50.992;13.788;2023-05-07T07:30:23;10.30;99.90
24664;DHT22;12791;50.992;13.788;2023-05-07T07:32:50;10.40;99.90
24664;DHT22;12791;50.992;13.788;2023-05-07T07:35:18;10.30;99.90
24664;DHT22;12791;50.992;13.788;2023-05-07T07:37:44;10.40;99.90
24664;DHT22;12791;50.992;13.788;2023-05-07T07:40:13;10.40;99.90
24664;DHT22;12791;50.992;13.788;2023-05-07T07:42:40;10.40;99.90
24664;DHT22;12791;50.992;13.788;2023-05-07T07:45:08;10.40;99.90
24664;DHT22;12791;50.992;13.788;2023-05-07T07:47:34;10.30;99.90
24664;DHT22;12791;50.992;13.788;2023-05-07T07:50:01;10.30;99.90
24664;DHT22;12791;50.992;13.788;2023-05-07T07:52:27;10.30;99.90
24664;DHT22;12791;50.992;13.788;2023-05-07T07:54:55;10.30;99.90
24664;DHT22;12791;50.992;13.788;2023-05-07T07:57:22;10.40;99.90
24664;DHT22;12791;50.992;13.788;2023-05-07T07:59:49;10.50;99.90
24664;DHT22;12791;50.992;13.788;2023-05-07T08:02:16;10.60;99.90
24664;DHT22;12791;50.992;13.788;2023-05-07T08:04:43;10.60;99.90
24664;DHT22;12791;50.992;13.788;2023-05-07T08:07:10;10.60;99.90
24664;DHT22;12791;50.992;13.788;2023-05-07T08:09:37;10.60;99.90
24664;DHT22;12791;50.992;13.788;2023-05-07T08:12:04;10.60;99.90
24664;DHT22;12791;50.992;13.788;2023-05-07T08:14:32;10.60;99.90
24664;DHT22;12791;50.992;13.788;2023-05-07T08:17:00;10.60;99.90
24664;DHT22;12791;50.992;13.788;2023-05-07T08:19:26;10.60;99.90
24664;DHT22;12791;50.992;13.788;2023-05-07T08:21:53;10.60;99.90
24664;DHT22;12791;50.992;13.788;2023-05-07T08:24:20;10.70;99.90
24664;DHT22;12791;50.992;13.788;2023-05-07T08:26:47;10.70;99.90
24664;DHT22;12791;50.992;13.788;2023-05-07T08:29:14;10.70;99.90
24664;DHT22;12791;50.992;13.788;2023-05-07T08:31:42;10.70;99.90
24664;DHT22;12791;50.992;13.788;2023-05-07T08:34:09;10.70;99.90
24664;DHT22;12791;50.992;13.788;2023-05-07T08:36:36;10.70;99.90
24664;DHT22;12791;50.992;13.788;2023-05-07T08:39:02;10.80;99.90
24664;DHT22;12791;50.992;13.788;2023-05-07T08:41:29;10.80;99.90
24664;DHT22;12791;50.992;13.788;2023-05-07T08:43:58;10.80;99.90
24664;DHT22;12791;50.992;13.788;2023-05-07T08:46:25;10.80;99.90
24664;DHT22;12791;50.992;13.788;2023-05-07T08:48:53;10.80;99.90
24664;DHT22;12791;50.992;13.788;2023-05-07T08:51:21;10.80;99.90
24664;DHT22;12791;50.992;13.788;2023-05-07T08:53:49;10.80;99.90
24664;DHT22;12791;50.992;13.788;2023-05-07T08:56:16;10.80;99.90
24664;DHT22;12791;50.992;13.788;2023-05-07T08:58:46;10.90;99.90
24664;DHT22;12791;50.992;13.788;2023-05-07T09:01:14;10.80;99.90
24664;DHT22;12791;50.992;13.788;2023-05-07T09:03:42;10.90;99.90
24664;DHT22;12791;50.992;13.788;2023-05-07T09:06:11;11.00;99.90
24664;DHT22;12791;50.992;13.788;2023-05-07T09:08:38;11.00;99.90
24664;DHT22;12791;50.992;13.788;2023-05-07T09:11:04;11.10;99.90
24664;DHT22;12791;50.992;13.788;2023-05-07T09:13:31;11.10;99.90
24664;DHT22;12791;50.992;13.788;2023-05-07T09:15:58;11.10;99.90
24664;DHT22;12791;50.992;13.788;2023-05-07T09:18:25;11.10;99.90
24664;DHT22;12791;50.992;13.788;2023-05-07T09:20:52;11.10;99.90
24664;DHT22;12791;50.992;13.788;2023-05-07T09:23:20;11.00;99.90
24664;DHT22;12791;50.992;13.788;2023-05-07T09:25:47;11.00;99.90
24664;DHT22;12791;50.992;13.788;2023-05-07T09:28:13;11.10;99.90
24664;DHT22;12791;50.992;13.788;2023-05-07T09:30:40;11.20;99.90
24664;DHT22;12791;50.992;13.788;2023-05-07T09:33:07;11.40;99.90
24664;DHT22;12791;50.992;13.788;2023-05-07T09:35:33;11.30;99.90
24664;DHT22;12791;50.992;13.788;2023-05-07T09:38:01;11.40;99.90
24664;DHT22;12791;50.992;13.788;2023-05-07T09:40:30;11.50;99.90
24664;DHT22;12791;50.992;13.788;2023-05-07T09:43:08;11.50;99.90
24664;DHT22;12791;50.992;13.788;2023-05-07T09:45:36;11.50;99.90
24664;DHT22;12791;50.992;13.788;2023-05-07T09:48:05;11.50;99.90
24664;DHT22;12791;50.992;13.788;2023-05-07T09:50:36;11.40;99.90
24664;DHT22;12791;50.992;13.788;2023-05-07T09:53:03;11.20;99.90
24664;DHT22;12791;50.992;13.788;2023-05-07T09:55:32;11.30;99.90
24664;DHT22;12791;50.992;13.788;2023-05-07T09:57:59;11.20;99.90
24664;DHT22;12791;50.992;13.788;2023-05-07T10:00:27;11.20;99.90
24664;DHT22;12791;50.992;13.788;2023-05-07T10:02:56;11.40;99.90
24664;DHT22;12791;50.992;13.788;2023-05-07T10:05:24;11.30;99.90
24664;DHT22;12791;50.992;13.788;2023-05-07T10:07:52;11.40;99.90
24664;DHT22;12791;50.992;13.788;2023-05-07T10:10:20;11.50;99.90
24664;DHT22;12791;50.992;13.788;2023-05-07T10:12:48;11.50;99.90
24664;DHT22;12791;50.992;13.788;2023-05-07T10:15:16;11.50;99.90
24664;DHT22;12791;50.992;13.788;2023-05-07T10:17:43;11.60;99.90
24664;DHT22;12791;50.992;13.788;2023-05-07T10:20:11;11.70;99.90
24664;DHT22;12791;50.992;13.788;2023-05-07T10:22:40;11.70;99.90
24664;DHT22;12791;50.992;13.788;2023-05-07T10:25:14;11.80;99.90
24664;DHT22;12791;50.992;13.788;2023-05-07T10:27:43;11.80;99.90
24664;DHT22;12791;50.992;13.788;2023-05-07T10:30:19;11.80;99.90
24664;DHT22;12791;50.992;13.788;2023-05-07T10:32:49;11.80;99.90
24664;DHT22;12791;50.992;13.788;2023-05-07T10:35:21;11.80;99.90
24664;DHT22;12791;50.992;13.788;2023-05-07T10:37:49;11.90;99.90
24664;DHT22;12791;50.992;13.788;2023-05-07T10:40:16;11.80;99.90
24664;DHT22;12791;50.992;13.788;2023-05-07T10:42:54;11.90;99.90
24664;DHT22;12791;50.992;13.788;2023-05-07T10:45:24;11.90;99.90
24664;DHT22;12791;50.992;13.788;2023-05-07T10:48:11;11.90;99.90
24664;DHT22;12791;50.992;13.788;2023-05-07T10:50:38;12.20;99.90
24664;DHT22;12791;50.992;13.788;2023-05-07T10:53:24;12.00;99.90
24664;DHT22;12791;50.992;13.788;2023-05-07T10:56:24;12.00;99.90
24664;DHT22;12791;50.992;13.788;2023-05-07T10:58:51;12.00;99.90
24664;DHT22;12791;50.992;13.788;2023-05-07T11:01:49;11.90;99.90
24664;DHT22;12791;50.992;13.788;2023-05-07T11:04:16;12.00;99.90
24664;DHT22;12791;50.992;13.788;2023-05-07T11:10:02;12.00;99.90
24664;DHT22;12791;50.992;13.788;2023-05-07T11:12:53;12.10;99.90
24664;DHT22;12791;50.992;13.788;2023-05-07T11:18:11;12.10;99.90
24664;DHT22;12791;50.992;13.788;2023-05-07T11:20:46;12.10;99.90
24664;DHT22;12791;50.992;13.788;2023-05-07T11:26:17;12.20;99.90
24664;DHT22;12791;50.992;13.788;2023-05-07T11:28:44;12.30;99.90
24664;DHT22;12791;50.992;13.788;2023-05-07T11:31:11;12.40;99.90
24664;DHT22;12791;50.992;13.788;2023-05-07T11:33:39;12.40;99.90
24664;DHT22;12791;50.992;13.788;2023-05-07T11:36:08;12.40;99.90
24664;DHT22;12791;50.992;13.788;2023-05-07T11:38:36;12.40;99.90
24664;DHT22;12791;50.992;13.788;2023-05-07T11:41:03;12.50;99.90
24664;DHT22;12791;50.992;13.788;2023-05-07T11:43:30;12.50;99.90
24664;DHT22;12791;50.992;13.788;2023-05-07T11:46:05;12.50;99.90
24664;DHT22;12791;50.992;13.788;2023-05-07T11:48:32;12.60;99.90
24664;DHT22;12791;50.992;13.788;2023-05-07T11:51:02;12.70;99.90
24664;DHT22;12791;50.992;13.788;2023-05-07T11:53:36;12.80;99.90
24664;DHT22;12791;50.992;13.788;2023-05-07T11:56:06;12.90;99.90
24664;DHT22;12791;50.992;13.788;2023-05-07T11:58:33;13.00;99.90
24664;DHT22;12791;50.992;13.788;2023-05-07T12:01:00;13.00;99.90
24664;DHT22;12791;50.992;13.788;2023-05-07T12:03:26;13.00;99.90
24664;DHT22;12791;50.992;13.788;2023-05-07T12:05:53;13.00;99.90
24664;DHT22;12791;50.992;13.788;2023-05-07T12:08:21;13.00;99.90
24664;DHT22;12791;50.992;13.788;2023-05-07T12:10:49;13.10;99.90
24664;DHT22;12791;50.992;13.788;2023-05-07T12:13:16;13.10;99.90
24664;DHT22;12791;50.992;13.788;2023-05-07T12:15:43;13.20;99.90
24664;DHT22;12791;50.992;13.788;2023-05-07T12:18:10;13.30;99.90
24664;DHT22;12791;50.992;13.788;2023-05-07T12:20:38;13.30;99.90
24664;DHT22;12791;50.992;13.788;2023-05-07T12:23:05;13.30;99.90
24664;DHT22;12791;50.992;13.788;2023-05-07T12:25:34;13.30;99.90
24664;DHT22;12791;50.992;13.788;2023-05-07T12:28:01;13.20;99.90
24664;DHT22;12791;50.992;13.788;2023-05-07T12:30:30;13.10;99.90
24664;DHT22;12791;50.992;13.788;2023-05-07T12:32:57;13.10;99.90
24664;DHT22;12791;50.992;13.788;2023-05-07T12:35:27;13.10;99.90
24664;DHT22;12791;50.992;13.788;2023-05-07T12:37:57;13.00;99.90
24664;DHT22;12791;50.992;13.788;2023-05-07T12:40:36;13.10;99.90
24664;DHT22;12791;50.992;13.788;2023-05-07T12:43:03;13.10;99.90
24664;DHT22;12791;50.992;13.788;2023-05-07T12:45:30;13.20;99.90
24664;DHT22;12791;50.992;13.788;2023-05-07T12:48:01;13.20;99.90
24664;DHT22;12791;50.992;13.788;2023-05-07T12:50:31;13.30;99.90
24664;DHT22;12791;50.992;13.788;2023-05-07T12:52:58;13.30;99.90
24664;DHT22;12791;50.992;13.788;2023-05-07T12:55:25;13.30;99.90
24664;DHT22;12791;50.992;13.788;2023-05-07T12:57:53;13.30;99.90
24664;DHT22;12791;50.992;13.788;2023-05-07T13:00:33;13.30;99.90
24664;DHT22;12791;50.992;13.788;2023-05-07T13:02:59;13.30;99.90
24664;DHT22;12791;50.992;13.788;2023-05-07T13:05:26;13.20;99.90
24664;DHT22;12791;50.992;13.788;2023-05-07T13:07:53;13.30;99.90
24664;DHT22;12791;50.992;13.788;2023-05-07T13:10:21;13.30;99.90
24664;DHT22;12791;50.992;13.788;2023-05-07T13:12:47;13.30;99.90
24664;DHT22;12791;50.992;13.788;2023-05-07T13:15:15;13.30;99.90
24664;DHT22;12791;50.992;13.788;2023-05-07T13:17:42;13.30;99.90
24664;DHT22;12791;50.992;13.788;2023-05-07T13:20:09;13.30;99.90
24664;DHT22;12791;50.992;13.788;2023-05-07T13:22:36;13.30;99.90
24664;DHT22;12791;50.992;13.788;2023-05-07T13:25:03;13.30;99.90
24664;DHT22;12791;50.992;13.788;2023-05-07T13:27:30;13.30;99.90
24664;DHT22;12791;50.992;13.788;2023-05-07T13:29:57;13.20;99.90
24664;DHT22;12791;50.992;13.788;2023-05-07T13:32:25;13.20;99.90
24664;DHT22;12791;50.992;13.788;2023-05-07T13:34:51;13.10;99.90
24664;DHT22;12791;50.992;13.788;2023-05-07T13:37:18;13.10;99.90
24664;DHT22;12791;50.992;13.788;2023-05-07T13:39:45;13.10;99.90
24664;DHT22;12791;50.992;13.788;2023-05-07T13:42:12;13.10;99.90
24664;DHT22;12791;50.992;13.788;2023-05-07T13:44:38;13.10;99.90
24664;DHT22;12791;50.992;13.788;2023-05-07T13:47:05;13.00;99.90
24664;DHT22;12791;50.992;13.788;2023-05-07T13:49:33;13.10;99.90
24664;DHT22;12791;50.992;13.788;2023-05-07T13:52:00;13.10;99.90
24664;DHT22;12791;50.992;13.788;2023-05-07T13:54:27;13.10;99.90
24664;DHT22;12791;50.992;13.788;2023-05-07T13:56:53;13.10;99.90
24664;DHT22;12791;50.992;13.788;2023-05-07T13:59:20;13.20;99.90
24664;DHT22;12791;50.992;13.788;2023-05-07T14:01:46;13.30;99.90
24664;DHT22;12791;50.992;13.788;2023-05-07T14:04:13;13.40;99.90
24664;DHT22;12791;50.992;13.788;2023-05-07T14:06:41;13.40;99.90
24664;DHT22;12791;50.992;13.788;2023-05-07T14:09:08;13.40;99.90
24664;DHT22;12791;50.992;13.788;2023-05-07T14:11:37;13.50;99.90
24664;DHT22;12791;50.992;13.788;2023-05-07T14:14:04;13.50;99.90
24664;DHT22;12791;50.992;13.788;2023-05-07T14:16:30;13.50;99.90
24664;DHT22;12791;50.992;13.788;2023-05-07T14:18:57;13.50;99.90
24664;DHT22;12791;50.992;13.788;2023-05-07T14:21:23;13.60;99.90
24664;DHT22;12791;50.992;13.788;2023-05-07T14:23:51;13.60;99.90
24664;DHT22;12791;50.992;13.788;2023-05-07T14:26:18;13.60;99.90
24664;DHT22;12791;50.992;13.788;2023-05-07T14:28:46;13.50;99.90
24664;DHT22;12791;50.992;13.788;2023-05-07T14:31:13;13.50;99.90
24664;DHT22;12791;50.992;13.788;2023-05-07T14:33:39;13.50;99.90
24664;DHT22;12791;50.992;13.788;2023-05-07T14:36:06;13.50;99.90
24664;DHT22;12791;50.992;13.788;2023-05-07T14:38:33;13.50;99.90
24664;DHT22;12791;50.992;13.788;2023-05-07T14:41:01;13.50;99.90
24664;DHT22;12791;50.992;13.788;2023-05-07T14:43:28;13.50;99.90
24664;DHT22;12791;50.992;13.788;2023-05-07T14:45:54;13.40;99.90
24664;DHT22;12791;50.992;13.788;2023-05-07T14:48:21;13.40;99.90
24664;DHT22;12791;50.992;13.788;2023-05-07T14:50:48;13.40;99.90
24664;DHT22;12791;50.992;13.788;2023-05-07T14:53:14;13.40;99.90
24664;DHT22;12791;50.992;13.788;2023-05-07T14:55:41;13.40;99.90
24664;DHT22;12791;50.992;13.788;2023-05-07T14:58:10;13.40;99.90
24664;DHT22;12791;50.992;13.788;2023-05-07T15:00:37;13.40;99.90
24664;DHT22;12791;50.992;13.788;2023-05-07T15:03:06;13.40;99.90
24664;DHT22;12791;50.992;13.788;2023-05-07T15:05:33;13.40;99.90
24664;DHT22;12791;50.992;13.788;2023-05-07T15:08:00;13.40;99.90
24664;DHT22;12791;50.992;13.788;2023-05-07T15:10:27;13.40;99.90
24664;DHT22;12791;50.992;13.788;2023-05-07T15:12:53;13.40;99.90
24664;DHT22;12791;50.992;13.788;2023-05-07T15:15:21;13.30;99.90
24664;DHT22;12791;50.992;13.788;2023-05-07T15:17:48;13.30;99.90
24664;DHT22;12791;50.992;13.788;2023-05-07T15:20:14;13.30;99.90
24664;DHT22;12791;50.992;13.788;2023-05-07T15:22:41;13.40;99.90
24664;DHT22;12791;50.992;13.788;2023-05-07T15:25:08;13.40;99.90
24664;DHT22;12791;50.992;13.788;2023-05-07T15:27:35;13.40;99.90